Time,TemperatureF,DewpointF,PressureIn,WindDirection,WindDirectionDegrees,WindSpeedMPH,WindSpeedGustMPH,Humidity,HourlyPrecipIn,Conditions,Clouds,dailyrainin,SoftwareType,DateUTC
2013-01-04 09:12:00,46.6,29.9,30.27,South,179,0.0,0.0,52,0.00,,SKC,-99.99,VWS V12.07,2013-01-04 07:12:00,
2013-01-04 09:17:00,47.1,30.4,30.27,South,179,0.0,0.0,52,0.00,,SKC,-99.99,VWS V12.07,2013-01-04 07:17:00,
2013-01-04 09:19:00,47.3,30.6,30.27,South,179,0.0,0.0,52,0.00,,SKC,-99.99,VWS V12.07,2013-01-04 07:19:00,
2013-01-04 09:24:00,47.8,31.1,30.27,South,179,0.0,0.0,52,0.00,,SKC,-99.99,VWS V12.07,2013-01-04 07:24:00,
2013-01-04 09:29:00,48.4,30.6,30.27,South,179,0.0,0.0,50,0.00,,SKC,-99.99,VWS V12.07,2013-01-04 07:29:00,
2013-01-04 09:34:00,48.7,29.9,30.27,South,179,0.0,0.0,48,0.00,,SKC,-99.99,VWS V12.07,2013-01-04 07:34:00,
2013-01-04 09:39:00,49.3,24.8,30.27,South,179,0.0,0.0,38,0.00,,SKC,-99.99,VWS V12.07,2013-01-04 07:39:00,
2013-01-04 09:44:00,50.4,25.1,30.27,South,179,0.0,0.0,37,0.00,,SKC,-99.99,VWS V12.07,2013-01-04 07:44:00,
2013-01-04 09:49:00,50.9,21.4,30.27,South,179,0.0,0.0,31,0.00,,SKC,-99.99,VWS V12.07,2013-01-04 07:49:00,
2013-01-04 21:11:00,47.3,24.2,30.16,SW,232,0.0,0.0,40,0.00,,SKC,-99.99,VWS V12.07,2013-01-04 19:11:00,
2013-01-04 21:12:00,47.3,24.2,30.16,SW,232,0.0,0.0,40,0.00,,SKC,-99.99,VWS V12.07,2013-01-04 19:12:00,
2013-01-04 21:16:00,47.1,24.1,30.13,SW,232,0.0,0.0,40,0.00,,SKC,-99.99,VWS V12.07,2013-01-04 19:16:00,
2013-01-04 21:22:00,47.1,24.1,30.13,SW,232,0.0,2.7,40,0.00,,SKC,-99.99,VWS V12.07,2013-01-04 19:22:00,
2013-01-04 21:27:00,46.9,23.9,30.13,SW,232,0.0,2.7,40,0.00,,SKC,-99.99,VWS V12.07,2013-01-04 19:27:00,
2013-01-04 21:31:00,46.8,23.7,30.13,SW,232,0.0,2.7,40,0.00,,SKC,-99.99,VWS V12.07,2013-01-04 19:31:00,
2013-01-04 21:36:00,46.8,23.7,30.13,SW,232,0.0,2.7,40,0.00,,SKC,-99.99,VWS V12.07,2013-01-04 19:36:00,
2013-01-04 21:41:00,46.6,24.2,30.13,SW,232,0.0,0.0,41,0.00,,SKC,-99.99,VWS V12.07,2013-01-04 19:41:00,
2013-01-04 21:46:00,46.8,25.5,30.13,SW,232,0.0,0.0,43,0.00,,SKC,-99.99,VWS V12.07,2013-01-04 19:46:00,
2013-01-04 23:34:00,45.7,22.2,30.13,East,83,0.0,0.0,39,0.00,,SKC,-99.99,VWS V12.07,2013-01-04 21:34:00,
2013-01-04 23:39:00,45.9,22.3,30.13,East,83,0.0,0.0,39,0.00,,SKC,-99.99,VWS V12.07,2013-01-04 21:39:00,
2013-01-04 23:44:00,45.9,22.3,30.13,East,83,0.0,0.0,39,0.00,,SKC,-99.99,VWS V12.07,2013-01-04 21:44:00,
2013-01-04 23:49:00,45.7,22.2,30.13,East,83,0.0,0.0,39,0.00,,SKC,-99.99,VWS V12.07,2013-01-04 21:49:00,
2013-01-04 23:55:00,45.7,22.2,30.13,East,83,0.0,0.0,39,0.00,,SKC,-99.99,VWS V12.07,2013-01-04 21:55:00,